Time;durP1;ratioP1;P1;durP2;ratioP2;P2;SDS_P1;SDS_P2;PMS_P1;PMS_P2;Temp;Humidity;BMP_temperature;BMP_pressure;BME280_temperature;BME280_humidity;BME280_pressure;Samples;Min_cycle;Max_cycle;Signal;HPM_P1;HPM_P2
2022/08/24 00:00:17;;;;;;;17.90;16.33;;;19.60;99.90;;;;;;5032994;28;20430;-56
2022/08/24 00:02:43;;;;;;;18.73;17.13;;;19.60;99.90;;;;;;5023412;28;20496;-54
2022/08/24 00:05:10;;;;;;;19.57;17.77;;;19.60;99.90;;;;;;5021008;28;20508;-53
2022/08/24 00:07:36;;;;;;;20.07;18.10;;;19.60;99.90;;;;;;5031334;28;20187;-52
2022/08/24 00:10:03;;;;;;;18.93;17.27;;;19.60;99.90;;;;;;5030627;28;20930;-53
2022/08/24 00:12:30;;;;;;;19.03;17.27;;;19.60;99.90;;;;;;5030786;28;20439;-51
2022/08/24 00:14:55;;;;;;;19.13;17.37;;;19.60;99.90;;;;;;5019063;28;20792;-52
2022/08/24 00:17:21;;;;;;;18.20;16.60;;;19.60;99.90;;;;;;5032653;28;20431;-55
2022/08/24 00:19:47;;;;;;;18.57;17.10;;;19.60;99.90;;;;;;5024785;28;20214;-51
2022/08/24 00:22:13;;;;;;;18.17;16.37;;;19.60;99.90;;;;;;5031190;28;20600;-53
2022/08/24 00:24:39;;;;;;;18.00;16.40;;;19.60;99.90;;;;;;5028209;28;20217;-52
2022/08/24 00:27:06;;;;;;;18.10;16.30;;;19.60;99.90;;;;;;5030210;28;20499;-55
2022/08/24 00:29:31;;;;;;;18.47;16.77;;;19.60;99.90;;;;;;5030343;28;20455;-55
2022/08/24 00:31:57;;;;;;;18.50;16.70;;;19.60;99.90;;;;;;5026129;28;20429;-52
2022/08/24 00:34:24;;;;;;;18.40;16.70;;;19.60;99.90;;;;;;5024316;28;20197;-53
2022/08/24 00:36:50;;;;;;;17.40;15.93;;;19.60;99.90;;;;;;5029674;28;20184;-50
2022/08/24 00:39:15;;;;;;;17.37;15.73;;;19.60;99.90;;;;;;5031482;28;20524;-52
2022/08/24 00:41:47;;;;;;;17.50;15.90;;;19.60;99.90;;;;;;5031146;28;20248;-57
2022/08/24 00:44:14;;;;;;;18.13;16.40;;;19.60;99.90;;;;;;5021650;28;20194;-52
2022/08/24 00:47:09;;;;;;;17.70;16.00;;;19.60;99.90;;;;;;5021804;28;20446;-55
2022/08/24 00:49:53;;;;;;;17.77;16.20;;;19.60;99.90;;;;;;5030349;28;20464;-57
2022/08/24 00:52:34;;;;;;;16.80;15.40;;;19.60;99.90;;;;;;5028146;28;20518;-55
2022/08/24 00:55:06;;;;;;;16.90;15.40;;;19.60;99.90;;;;;;5028229;28;21082;-53
2022/08/24 00:57:38;;;;;;;17.17;15.77;;;19.60;99.90;;;;;;5030729;28;20497;-52
2022/08/24 01:00:14;;;;;;;17.90;16.30;;;19.50;99.90;;;;;;5016579;28;20433;-55
2022/08/24 01:02:43;;;;;;;16.77;15.37;;;19.50;99.90;;;;;;5029503;28;21368;-53
2022/08/24 01:05:11;;;;;;;18.20;16.67;;;19.50;99.90;;;;;;5019372;28;20422;-54
2022/08/24 01:07:38;;;;;;;17.60;16.00;;;19.50;99.90;;;;;;5030580;28;20434;-54
2022/08/24 01:10:13;;;;;;;18.67;16.80;;;19.50;99.90;;;;;;5032469;28;20908;-53
2022/08/24 01:12:51;;;;;;;17.67;16.10;;;19.50;99.90;;;;;;5025829;28;20473;-51
2022/08/24 01:15:19;;;;;;;18.60;16.60;;;19.40;99.90;;;;;;5019136;28;20465;-53
2022/08/24 01:20:29;;;;;;;19.33;17.70;;;19.40;99.90;;;;;;5024218;28;20786;-54
2022/08/24 01:23:37;;;;;;;17.73;16.13;;;19.40;99.90;;;;;;5027705;28;20434;-55
2022/08/24 01:26:04;;;;;;;17.70;16.07;;;19.40;99.90;;;;;;5037946;28;20210;-53
2022/08/24 01:28:30;;;;;;;17.67;16.07;;;19.40;99.90;;;;;;5029034;28;20881;-55
2022/08/24 01:30:56;;;;;;;19.40;17.80;;;19.40;99.90;;;;;;5030665;28;20546;-54
2022/08/24 01:33:26;;;;;;;19.40;17.73;;;19.40;99.90;;;;;;5029822;28;20441;-55
2022/08/24 01:36:13;;;;;;;19.93;18.00;;;19.50;99.90;;;;;;5030822;28;20601;-53
2022/08/24 01:38:39;;;;;;;18.27;16.50;;;19.50;99.90;;;;;;5028841;28;20462;-51
2022/08/24 01:41:05;;;;;;;19.27;17.53;;;19.50;99.90;;;;;;5026650;28;20465;-52
2022/08/24 01:43:31;;;;;;;19.50;17.80;;;19.40;99.90;;;;;;5024933;28;20202;-52
2022/08/24 01:45:57;;;;;;;18.97;17.17;;;19.40;99.90;;;;;;5021083;28;20445;-54
2022/08/24 01:48:23;;;;;;;18.27;16.43;;;19.50;99.90;;;;;;5026452;28;20459;-54
2022/08/24 01:50:48;;;;;;;19.57;17.47;;;19.50;99.90;;;;;;5031079;28;20562;-54
2022/08/24 01:53:14;;;;;;;17.77;16.23;;;19.50;99.90;;;;;;5026192;28;20520;-54
2022/08/24 01:55:40;;;;;;;18.27;16.60;;;19.50;99.90;;;;;;5030838;28;20218;-55
2022/08/24 01:58:06;;;;;;;17.13;15.63;;;19.50;99.90;;;;;;5018460;28;20305;-52
2022/08/24 02:00:34;;;;;;;18.20;16.70;;;19.50;99.90;;;;;;5028714;28;20793;-51
2022/08/24 02:02:59;;;;;;;19.27;17.63;;;19.50;99.90;;;;;;5026301;28;20449;-54
2022/08/24 02:05:25;;;;;;;17.67;15.97;;;19.50;99.90;;;;;;5030733;28;20426;-53
2022/08/24 02:07:51;;;;;;;17.30;15.80;;;19.50;99.90;;;;;;5027798;28;20309;-53
2022/08/24 02:10:18;;;;;;;18.00;16.50;;;19.50;99.90;;;;;;5029387;28;20195;-56
2022/08/24 02:12:56;;;;;;;18.10;16.40;;;19.50;99.90;;;;;;5029766;28;20441;-52
2022/08/24 02:15:28;;;;;;;18.60;17.00;;;19.50;99.90;;;;;;5023580;28;21019;-55
2022/08/24 02:17:54;;;;;;;18.90;17.30;;;19.50;99.90;;;;;;5025367;28;20439;-56
2022/08/24 02:20:21;;;;;;;17.60;16.20;;;19.50;99.90;;;;;;5027574;28;20472;-56
2022/08/24 02:22:48;;;;;;;19.43;17.53;;;19.50;99.90;;;;;;5025656;28;20441;-50
2022/08/24 02:25:15;;;;;;;18.23;16.43;;;19.50;99.90;;;;;;5030404;28;20433;-50
2022/08/24 02:27:41;;;;;;;18.23;16.63;;;19.50;99.90;;;;;;5024084;28;20796;-49
2022/08/24 02:30:07;;;;;;;18.73;17.07;;;19.40;99.90;;;;;;5027978;28;20538;-49
2022/08/24 02:32:33;;;;;;;17.13;15.70;;;19.50;99.90;;;;;;5027015;28;20242;-51
2022/08/24 02:34:59;;;;;;;17.03;15.43;;;19.40;99.90;;;;;;5023112;28;20474;-49
2022/08/24 02:37:24;;;;;;;16.37;14.87;;;19.40;99.90;;;;;;5027201;28;20183;-52
2022/08/24 02:39:51;;;;;;;18.07;16.17;;;19.40;99.90;;;;;;5029722;28;20190;-51
2022/08/24 02:42:17;;;;;;;17.90;16.20;;;19.40;99.90;;;;;;5029375;28;20217;-49
2022/08/24 02:44:42;;;;;;;18.13;16.43;;;19.40;99.90;;;;;;5029593;28;20483;-52
2022/08/24 02:47:09;;;;;;;18.07;16.27;;;19.40;99.90;;;;;;5027197;28;20238;-55
2022/08/24 02:49:35;;;;;;;17.33;15.83;;;19.40;99.90;;;;;;5027654;28;20540;-50
2022/08/24 02:52:02;;;;;;;17.80;16.10;;;19.40;99.90;;;;;;5027253;28;20445;-57
2022/08/24 02:54:28;;;;;;;18.47;16.67;;;19.40;99.90;;;;;;5029766;28;20905;-55
2022/08/24 02:56:53;;;;;;;17.37;15.67;;;19.30;99.90;;;;;;5023624;28;20512;-53
2022/08/24 02:59:20;;;;;;;17.37;15.87;;;19.30;99.90;;;;;;5020243;28;20446;-55
2022/08/24 03:01:46;;;;;;;16.93;15.40;;;19.30;99.90;;;;;;5026184;28;20198;-53
2022/08/24 03:04:11;;;;;;;18.20;16.40;;;19.30;99.90;;;;;;5024446;28;20464;-54
2022/08/24 03:06:37;;;;;;;17.93;16.27;;;19.30;99.90;;;;;;5026534;28;20438;-57
2022/08/24 03:09:03;;;;;;;17.27;15.83;;;19.20;99.90;;;;;;5026792;28;20531;-51
2022/08/24 03:11:29;;;;;;;17.77;16.03;;;19.20;99.90;;;;;;5026745;28;20453;-55
2022/08/24 03:13:57;;;;;;;19.20;17.40;;;19.20;99.90;;;;;;5027887;28;20441;-55
2022/08/24 03:16:24;;;;;;;17.67;15.97;;;19.20;99.90;;;;;;5026105;28;20215;-55
2022/08/24 03:18:50;;;;;;;17.33;15.60;;;19.20;99.90;;;;;;5023964;28;20445;-55
2022/08/24 03:21:17;;;;;;;18.37;16.77;;;19.20;99.90;;;;;;5024232;28;21047;-55
2022/08/24 03:23:43;;;;;;;17.77;16.23;;;19.20;99.90;;;;;;5027003;28;20185;-55
2022/08/24 03:26:08;;;;;;;18.90;17.20;;;19.20;99.90;;;;;;5028862;28;20437;-52
2022/08/24 03:28:34;;;;;;;18.47;16.67;;;19.20;99.90;;;;;;5029500;28;20657;-51
2022/08/24 03:30:59;;;;;;;18.83;17.10;;;19.20;99.90;;;;;;5035640;28;20728;-53
2022/08/24 03:33:25;;;;;;;18.33;16.50;;;19.20;99.90;;;;;;5035904;28;20190;-54
2022/08/24 03:35:52;;;;;;;19.17;17.13;;;19.20;99.90;;;;;;5034452;28;20219;-53
2022/08/24 03:38:18;;;;;;;20.00;17.13;;;19.10;99.90;;;;;;5033302;28;20518;-53
2022/08/24 03:40:44;;;;;;;18.57;17.03;;;19.20;99.90;;;;;;5032477;28;20426;-54
2022/08/24 03:43:44;;;;;;;17.50;15.70;;;19.20;99.90;;;;;;5033766;28;20490;-54
2022/08/24 03:45:55;;;;;;;17.67;16.07;;;19.20;99.90;;;;;;5027767;28;20301;-55
2022/08/24 03:48:21;;;;;;;19.77;18.00;;;19.20;99.90;;;;;;5040892;28;20527;-52
2022/08/24 03:50:46;;;;;;;18.17;16.37;;;19.30;99.90;;;;;;5029309;28;20209;-54
2022/08/24 03:53:12;;;;;;;18.80;16.90;;;19.20;99.90;;;;;;5038814;28;20521;-55
2022/08/24 03:55:37;;;;;;;18.57;16.97;;;19.20;99.90;;;;;;5024363;28;20222;-52
2022/08/24 03:58:03;;;;;;;18.63;17.03;;;19.20;99.90;;;;;;5015472;28;20230;-55
2022/08/24 04:00:29;;;;;;;19.43;17.40;;;19.20;99.90;;;;;;5005460;28;20634;-52
2022/08/24 04:02:55;;;;;;;18.83;17.13;;;19.20;99.90;;;;;;5011437;28;20288;-55
2022/08/24 04:05:21;;;;;;;18.33;16.73;;;19.20;99.90;;;;;;5007798;28;20180;-56
2022/08/24 04:07:46;;;;;;;20.07;18.20;;;19.20;99.90;;;;;;5005933;28;20492;-54
2022/08/24 04:10:13;;;;;;;19.50;17.07;;;19.20;99.90;;;;;;5015082;28;20447;-54
2022/08/24 04:12:39;;;;;;;18.43;16.83;;;19.20;99.90;;;;;;5011562;28;20378;-53
2022/08/24 04:15:05;;;;;;;20.53;18.73;;;19.20;99.90;;;;;;5003264;28;20472;-53
2022/08/24 04:17:31;;;;;;;20.17;18.30;;;19.20;99.90;;;;;;5014887;28;20470;-53
2022/08/24 04:19:57;;;;;;;20.23;18.33;;;19.20;99.90;;;;;;5021046;28;20428;-51
2022/08/24 04:22:29;;;;;;;19.37;17.67;;;19.20;99.90;;;;;;5049169;28;20405;-54
2022/08/24 04:24:55;;;;;;;20.03;17.77;;;19.20;99.90;;;;;;5026242;28;20188;-54
2022/08/24 04:27:21;;;;;;;18.73;17.03;;;19.20;99.90;;;;;;5017251;28;20441;-50
2022/08/24 04:29:47;;;;;;;19.47;17.57;;;19.10;99.90;;;;;;5032589;28;20505;-54
2022/08/24 04:32:14;;;;;;;20.77;18.70;;;19.20;99.90;;;;;;5031942;28;20513;-53
2022/08/24 04:34:41;;;;;;;20.20;18.13;;;19.20;99.90;;;;;;5033836;28;20217;-52
2022/08/24 04:37:07;;;;;;;18.67;16.90;;;19.10;99.90;;;;;;5030043;28;20843;-51
2022/08/24 04:39:32;;;;;;;19.33;17.43;;;19.10;99.90;;;;;;5030784;28;20422;-55
2022/08/24 04:41:58;;;;;;;19.50;17.70;;;19.10;99.90;;;;;;5032412;28;20537;-53
2022/08/24 04:44:24;;;;;;;19.40;17.40;;;19.10;99.90;;;;;;5030954;28;20558;-53
2022/08/24 04:46:50;;;;;;;19.27;17.47;;;19.00;99.90;;;;;;5032404;28;20428;-56
2022/08/24 04:49:15;;;;;;;21.13;19.20;;;19.00;99.90;;;;;;5031181;28;20602;-55
2022/08/24 04:51:41;;;;;;;21.53;19.53;;;19.00;99.90;;;;;;5031938;28;20197;-55
2022/08/24 04:54:07;;;;;;;22.27;19.43;;;19.00;99.90;;;;;;5031850;28;20187;-55
2022/08/24 04:56:33;;;;;;;21.83;19.73;;;19.00;99.90;;;;;;5032876;28;20211;-52
2022/08/24 04:58:59;;;;;;;20.50;18.60;;;19.00;99.90;;;;;;5030130;28;20186;-54
2022/08/24 05:01:29;;;;;;;21.17;18.97;;;19.10;99.90;;;;;;5031304;28;20993;-56
2022/08/24 05:03:55;;;;;;;22.37;20.17;;;19.10;99.90;;;;;;5032005;28;20445;-55
2022/08/24 05:06:23;;;;;;;23.50;19.20;;;19.10;99.90;;;;;;5031668;28;20436;-56
2022/08/24 05:08:49;;;;;;;20.10;18.10;;;19.20;99.90;;;;;;5038661;28;20832;-55
2022/08/24 05:11:16;;;;;;;20.83;18.90;;;19.20;99.90;;;;;;5031421;28;20446;-54
2022/08/24 05:13:42;;;;;;;22.80;20.50;;;19.20;99.90;;;;;;5030564;28;20453;-53
2022/08/24 05:16:11;;;;;;;23.30;20.40;;;19.30;99.90;;;;;;5031193;28;20461;-54
2022/08/24 05:18:37;;;;;;;20.07;18.13;;;19.30;99.90;;;;;;5031014;28;20536;-56
2022/08/24 05:21:11;;;;;;;19.20;17.20;;;19.40;99.90;;;;;;5031321;28;20450;-56
2022/08/24 05:23:38;;;;;;;21.17;19.20;;;19.40;99.90;;;;;;5031237;28;20452;-56
2022/08/24 05:26:06;;;;;;;19.17;17.33;;;19.40;99.90;;;;;;5031477;28;20504;-49
2022/08/24 05:28:34;;;;;;;18.37;16.67;;;19.40;99.90;;;;;;5029981;28;20480;-54
2022/08/24 05:31:11;;;;;;;18.93;17.13;;;19.40;99.90;;;;;;5018059;28;20421;-55
2022/08/24 05:33:37;;;;;;;18.63;16.83;;;19.40;99.90;;;;;;5030231;28;20520;-50
2022/08/24 05:36:04;;;;;;;19.23;17.43;;;19.50;99.90;;;;;;5031101;28;20584;-51
2022/08/24 05:38:32;;;;;;;18.90;17.27;;;19.60;99.90;;;;;;5030160;28;20625;-54
2022/08/24 05:41:02;;;;;;;19.30;17.33;;;19.60;99.90;;;;;;5031954;28;20484;-52
2022/08/24 05:43:28;;;;;;;19.43;17.73;;;19.60;99.90;;;;;;5031124;28;20421;-48
2022/08/24 05:45:54;;;;;;;20.27;18.33;;;19.60;99.90;;;;;;5030878;28;20418;-55
2022/08/24 05:48:20;;;;;;;19.17;17.30;;;19.70;99.90;;;;;;5029483;28;20947;-53
2022/08/24 05:50:51;;;;;;;19.83;17.83;;;19.60;99.90;;;;;;5031361;28;20630;-54
2022/08/24 05:53:17;;;;;;;18.90;16.87;;;19.60;99.90;;;;;;5030737;28;20381;-51
2022/08/24 05:55:43;;;;;;;18.97;17.27;;;19.60;99.90;;;;;;5020018;28;20552;-53
2022/08/24 05:58:08;;;;;;;19.57;17.67;;;19.70;99.90;;;;;;5028561;28;20838;-54
2022/08/24 06:00:36;;;;;;;19.00;17.20;;;19.70;99.90;;;;;;5029844;28;20298;-52
2022/08/24 06:03:01;;;;;;;18.97;16.97;;;19.80;99.90;;;;;;5031620;28;20209;-56
2022/08/24 06:05:27;;;;;;;17.97;16.40;;;19.90;99.90;;;;;;5031325;28;20867;-55
2022/08/24 06:07:53;;;;;;;17.83;16.10;;;19.90;99.90;;;;;;5031488;28;20274;-56
2022/08/24 06:10:19;;;;;;;18.10;16.30;;;20.10;99.90;;;;;;5031157;28;20241;-55
2022/08/24 06:12:45;;;;;;;19.33;17.50;;;20.10;99.90;;;;;;5030545;28;20230;-50
2022/08/24 06:15:12;;;;;;;18.27;16.57;;;20.20;99.90;;;;;;5030748;28;20469;-54
2022/08/24 06:17:38;;;;;;;18.60;16.90;;;20.20;99.90;;;;;;5030357;28;20189;-52
2022/08/24 06:20:04;;;;;;;18.87;17.27;;;20.20;99.90;;;;;;5030849;28;20422;-52
2022/08/24 06:22:30;;;;;;;18.90;17.30;;;20.40;99.90;;;;;;5031284;28;20446;-50
2022/08/24 06:27:40;;;;;;;19.30;17.60;;;20.60;99.90;;;;;;5030151;28;20186;-52
2022/08/24 06:30:09;;;;;;;17.87;16.17;;;20.80;99.90;;;;;;5029888;28;20442;-55
2022/08/24 06:32:35;;;;;;;19.07;17.20;;;20.90;99.90;;;;;;5030634;28;20873;-58
2022/08/24 06:35:01;;;;;;;18.80;16.87;;;21.10;99.90;;;;;;5029826;28;20461;-55
2022/08/24 06:37:27;;;;;;;17.77;16.30;;;21.20;99.90;;;;;;5030913;28;20425;-55
2022/08/24 06:39:54;;;;;;;16.60;15.10;;;21.20;99.90;;;;;;5028727;28;20215;-55
2022/08/24 06:42:20;;;;;;;18.60;16.90;;;21.20;99.90;;;;;;5028169;28;20451;-53
2022/08/24 06:44:47;;;;;;;19.23;17.30;;;21.20;99.90;;;;;;5029044;28;20925;-56
2022/08/24 06:47:13;;;;;;;19.80;17.73;;;21.20;99.90;;;;;;5028832;28;20506;-55
2022/08/24 06:49:38;;;;;;;18.67;17.00;;;21.20;99.90;;;;;;5029137;28;20530;-52
2022/08/24 06:52:04;;;;;;;18.67;17.13;;;21.30;99.90;;;;;;5028750;28;20183;-56
2022/08/24 06:54:31;;;;;;;17.37;15.87;;;21.40;99.90;;;;;;5029720;28;20221;-51
2022/08/24 06:56:57;;;;;;;16.97;15.37;;;21.40;99.90;;;;;;5028730;28;20828;-56
2022/08/24 06:59:26;;;;;;;18.37;16.70;;;21.50;99.90;;;;;;5029170;28;20416;-55
2022/08/24 07:01:53;;;;;;;18.53;17.00;;;21.60;99.90;;;;;;5028760;28;20424;-57
2022/08/24 07:04:18;;;;;;;18.87;17.20;;;21.70;99.90;;;;;;5027832;28;20433;-56
2022/08/24 07:06:44;;;;;;;18.23;16.73;;;21.90;99.90;;;;;;5031617;28;20425;-54
2022/08/24 07:09:11;;;;;;;18.20;16.63;;;21.90;99.90;;;;;;5036661;28;20213;-54
2022/08/24 07:11:36;;;;;;;16.80;15.20;;;22.00;99.90;;;;;;5034643;28;20189;-56
2022/08/24 07:14:02;;;;;;;16.80;15.27;;;22.10;99.90;;;;;;5031506;28;20462;-56
2022/08/24 07:16:28;;;;;;;18.00;15.97;;;22.20;99.90;;;;;;5038791;28;20256;-56
2022/08/24 07:18:54;;;;;;;17.13;15.73;;;22.40;99.90;;;;;;5037271;28;20422;-55
2022/08/24 07:21:20;;;;;;;17.60;15.90;;;22.50;99.90;;;;;;5027327;28;20842;-55
2022/08/24 07:23:47;;;;;;;17.00;15.37;;;22.50;99.90;;;;;;5027304;28;20218;-55
2022/08/24 07:26:18;;;;;;;17.73;16.23;;;22.70;99.90;;;;;;5028692;28;20187;-54
2022/08/24 07:28:43;;;;;;;18.50;16.50;;;22.80;99.90;;;;;;5029463;28;20972;-54
2022/08/24 07:31:09;;;;;;;17.17;15.70;;;22.80;99.90;;;;;;5028826;28;20528;-57
2022/08/24 07:33:35;;;;;;;17.23;15.83;;;22.80;99.90;;;;;;5018608;28;20183;-55
2022/08/24 07:36:01;;;;;;;18.03;16.53;;;22.80;99.90;;;;;;5031016;28;20284;-51
2022/08/24 07:38:27;;;;;;;16.90;15.40;;;22.80;99.90;;;;;;5031886;28;20420;-57
2022/08/24 07:40:53;;;;;;;17.60;15.90;;;23.00;99.90;;;;;;5037902;28;20912;-55
2022/08/24 07:43:19;;;;;;;17.13;15.63;;;23.00;99.90;;;;;;5030582;28;20235;-54
2022/08/24 07:45:48;;;;;;;17.50;16.00;;;23.00;99.90;;;;;;5026920;28;20525;-56
2022/08/24 07:48:14;;;;;;;17.70;15.90;;;23.10;99.90;;;;;;5028626;28;20436;-53
2022/08/24 07:50:39;;;;;;;17.17;15.70;;;23.20;99.90;;;;;;5028349;28;20434;-55
2022/08/24 07:53:05;;;;;;;16.80;15.20;;;23.20;99.90;;;;;;5028400;28;20230;-53
2022/08/24 07:55:30;;;;;;;16.60;15.20;;;23.20;99.90;;;;;;5031124;28;20218;-56
2022/08/24 07:57:58;;;;;;;18.00;16.40;;;23.10;99.90;;;;;;5032416;28;20681;-56
2022/08/24 08:00:25;;;;;;;18.47;16.60;;;23.00;99.90;;;;;;5032225;28;20270;-55
2022/08/24 08:02:50;;;;;;;18.27;16.60;;;22.90;99.90;;;;;;5032958;28;20770;-54
2022/08/24 08:05:19;;;;;;;17.20;15.83;;;22.90;99.90;;;;;;5031863;28;20439;-55
2022/08/24 08:07:45;;;;;;;17.33;15.77;;;23.00;99.90;;;;;;5036491;28;20205;-55
2022/08/24 08:10:11;;;;;;;17.70;16.03;;;23.00;99.90;;;;;;5032201;28;20460;-55
2022/08/24 08:12:37;;;;;;;18.30;16.70;;;23.00;99.90;;;;;;5030977;28;20630;-56
2022/08/24 08:15:03;;;;;;;17.47;15.77;;;23.10;99.90;;;;;;5032384;28;20522;-55
2022/08/24 08:17:29;;;;;;;16.73;15.37;;;23.10;99.90;;;;;;5032075;28;20425;-48
2022/08/24 08:19:54;;;;;;;17.37;15.97;;;23.20;99.90;;;;;;5031745;28;20606;-51
2022/08/24 08:25:06;;;;;;;16.83;15.33;;;23.40;99.90;;;;;;5031843;28;20201;-56
2022/08/24 08:27:33;;;;;;;18.90;17.00;;;23.40;99.90;;;;;;5033378;28;20436;-53
2022/08/24 08:29:59;;;;;;;16.13;14.73;;;23.50;99.90;;;;;;5031344;28;20428;-55
2022/08/24 08:32:25;;;;;;;16.27;14.83;;;23.60;99.90;;;;;;5032009;28;20430;-53
2022/08/24 08:34:50;;;;;;;16.47;14.90;;;23.80;99.90;;;;;;5031556;28;20194;-53
2022/08/24 08:37:16;;;;;;;16.67;15.00;;;24.00;99.90;;;;;;5032978;28;20192;-51
2022/08/24 08:39:42;;;;;;;16.13;14.77;;;24.30;99.90;;;;;;5031632;28;20241;-54
2022/08/24 08:42:35;;;;;;;15.83;14.47;;;24.50;99.90;;;;;;5031880;28;20183;-55
2022/08/24 08:45:37;;;;;;;15.70;14.30;;;24.70;99.90;;;;;;5021207;28;20196;-54
2022/08/24 08:48:36;;;;;;;16.20;14.67;;;24.90;99.90;;;;;;5011831;28;20430;-55
2022/08/24 08:51:24;;;;;;;15.33;14.13;;;24.90;99.90;;;;;;5008469;28;20822;-53
2022/08/24 08:54:04;;;;;;;13.67;12.57;;;25.10;99.90;;;;;;5030221;28;20948;-54
2022/08/24 08:56:35;;;;;;;15.67;14.13;;;25.20;99.90;;;;;;5049724;28;20466;-54
2022/08/24 08:59:16;;;;;;;16.37;14.97;;;25.80;99.90;;;;;;5051484;28;20512;-54
2022/08/24 09:02:14;;;;;;;15.20;13.90;;;26.30;99.90;;;;;;5040868;28;20425;-52
2022/08/24 09:05:08;;;;;;;16.10;14.60;;;26.70;99.90;;;;;;5030889;28;20418;-54
2022/08/24 09:08:04;;;;;;;12.77;11.87;;;27.00;99.90;;;;;;5026664;28;20428;-55
2022/08/24 09:10:53;;;;;;;14.80;13.60;;;27.20;99.90;;;;;;5051065;28;20461;-51
2022/08/24 09:13:50;;;;;;;14.37;13.17;;;27.60;99.90;;;;;;5050631;28;20949;-49
2022/08/24 09:16:23;;;;;;;13.70;12.50;;;27.70;99.90;;;;;;5041539;28;20827;-54
2022/08/24 09:19:03;;;;;;;14.50;13.20;;;27.90;99.90;;;;;;5034860;28;20956;-55
2022/08/24 09:21:40;;;;;;;15.50;14.07;;;27.80;98.60;;;;;;5037541;28;20855;-54
2022/08/24 09:24:21;;;;;;;14.27;13.03;;;27.70;98.70;;;;;;5030835;28;20421;-54
2022/08/24 09:26:58;;;;;;;14.07;12.90;;;27.50;99.20;;;;;;5047505;28;20442;-55
2022/08/24 09:29:45;;;;;;;14.70;13.50;;;27.40;99.70;;;;;;5042756;28;20433;-53
2022/08/24 09:32:30;;;;;;;14.50;13.30;;;27.50;98.50;;;;;;5029956;28;20433;-54
2022/08/24 09:35:03;;;;;;;15.17;13.97;;;27.20;99.30;;;;;;5035549;28;20441;-56
2022/08/24 09:38:07;;;;;;;14.80;13.50;;;27.10;99.90;;;;;;5036560;28;21075;-53
2022/08/24 09:41:19;;;;;;;14.27;12.97;;;27.00;99.90;;;;;;5030377;28;20931;-53
2022/08/24 09:44:38;;;;;;;14.90;13.80;;;27.10;99.90;;;;;;5021285;28;20581;-53
2022/08/24 09:47:14;;;;;;;13.87;12.83;;;27.40;99.90;;;;;;5047663;28;20531;-55
2022/08/24 09:50:21;;;;;;;13.20;12.00;;;27.60;99.20;;;;;;5046258;28;20871;-53
2022/08/24 09:52:46;;;;;;;14.33;12.93;;;27.70;99.10;;;;;;5029985;28;20433;-53
2022/08/24 09:55:36;;;;;;;13.83;12.73;;;27.60;99.40;;;;;;5021511;28;20819;-54
2022/08/24 09:58:42;;;;;;;12.63;11.53;;;27.90;99.50;;;;;;5016937;28;20685;-53
2022/08/24 10:01:36;;;;;;;13.20;11.90;;;28.30;98.40;;;;;;5019728;28;20441;-55
2022/08/24 10:04:11;;;;;;;11.93;10.93;;;29.00;99.60;;;;;;5028517;28;20453;-54
2022/08/24 10:06:43;;;;;;;11.97;11.07;;;30.30;95.00;;;;;;5030327;28;20865;-55
2022/08/24 10:09:18;;;;;;;11.93;10.83;;;30.90;91.30;;;;;;5016253;28;20457;-55
2022/08/24 10:11:53;;;;;;;13.23;12.33;;;31.80;86.30;;;;;;5025567;28;20544;-52
2022/08/24 10:14:40;;;;;;;12.37;11.40;;;32.00;83.20;;;;;;5027920;28;20473;-52
2022/08/24 10:17:14;;;;;;;13.00;12.10;;;32.20;80.70;;;;;;5029474;28;20469;-53
2022/08/24 10:19:59;;;;;;;12.80;12.00;;;31.90;79.30;;;;;;5019614;28;20442;-55
2022/08/24 10:22:35;;;;;;;13.20;12.23;;;31.50;81.00;;;;;;5024254;28;20986;-53
2022/08/24 10:25:23;;;;;;;12.93;12.10;;;31.40;79.60;;;;;;5023302;28;20474;-54
2022/08/24 10:27:59;;;;;;;13.37;12.10;;;30.80;80.50;;;;;;5029639;28;20413;-54
2022/08/24 10:30:46;;;;;;;14.37;13.27;;;30.40;81.40;;;;;;5025116;28;20931;-48
2022/08/24 10:33:23;;;;;;;15.87;14.53;;;30.10;84.40;;;;;;5011952;28;20454;-51
2022/08/24 10:35:52;;;;;;;14.63;13.63;;;30.00;81.70;;;;;;5026791;28;20484;-53
2022/08/24 10:41:35;;;;;;;15.40;14.07;;;29.40;88.80;;;;;;5019936;28;20802;-55
2022/08/24 10:44:06;;;;;;;15.20;14.03;;;29.00;88.10;;;;;;5029966;28;20414;-53
2022/08/24 10:46:59;;;;;;;15.33;14.13;;;28.70;91.30;;;;;;5028892;28;20520;-54
2022/08/24 10:49:27;;;;;;;14.40;13.40;;;28.60;92.20;;;;;;5030014;28;20402;-54
2022/08/24 10:52:21;;;;;;;15.40;14.20;;;28.50;91.80;;;;;;5033923;28;20443;-53
2022/08/24 10:54:47;;;;;;;17.03;15.53;;;28.40;93.20;;;;;;5023035;28;20970;-51
2022/08/24 10:57:42;;;;;;;15.97;14.67;;;28.60;93.20;;;;;;5029496;28;20504;-53
2022/08/24 11:00:13;;;;;;;15.03;13.73;;;29.40;91.70;;;;;;5029533;28;20828;-55
2022/08/24 11:02:42;;;;;;;16.07;14.77;;;30.30;89.60;;;;;;5018150;28;20434;-57
2022/08/24 11:05:14;;;;;;;15.87;14.57;;;30.90;85.00;;;;;;5028334;28;20497;-55
2022/08/24 11:08:03;;;;;;;14.63;13.50;;;31.60;81.60;;;;;;5029505;28;20422;-52
2022/08/24 11:10:33;;;;;;;13.90;12.70;;;32.70;77.20;;;;;;5029491;28;20453;-54
2022/08/24 11:13:21;;;;;;;13.00;11.90;;;33.80;67.20;;;;;;5029268;28;20430;-56
2022/08/24 11:15:52;;;;;;;14.43;13.20;;;34.70;62.50;;;;;;5029507;28;20568;-57
2022/08/24 11:18:18;;;;;;;14.53;13.30;;;34.80;59.00;;;;;;5028862;28;20470;-56
2022/08/24 11:20:47;;;;;;;15.97;14.63;;;34.60;59.20;;;;;;5032034;28;20421;-55
2022/08/24 11:23:27;;;;;;;16.77;15.47;;;34.10;59.30;;;;;;5037683;28;20424;-54
2022/08/24 11:26:04;;;;;;;15.63;14.20;;;34.10;57.70;;;;;;5030290;28;20417;-55
2022/08/24 11:28:37;;;;;;;15.87;14.43;;;34.80;57.60;;;;;;5025190;28;20432;-57
2022/08/24 11:31:07;;;;;;;15.30;14.17;;;35.50;55.40;;;;;;5024992;28;20441;-56
2022/08/24 11:33:59;;;;;;;16.43;15.10;;;35.70;52.60;;;;;;5029065;28;20464;-56
2022/08/24 11:36:30;;;;;;;15.53;14.30;;;35.20;55.00;;;;;;5027082;28;20471;-55
2022/08/24 11:39:18;;;;;;;16.87;15.37;;;35.80;53.10;;;;;;5022312;28;20428;-53
2022/08/24 11:41:59;;;;;;;16.60;15.30;;;36.30;49.70;;;;;;5026992;28;20432;-55
2022/08/24 11:44:37;;;;;;;18.80;17.03;;;36.40;47.20;;;;;;5026755;28;20402;-56
2022/08/24 11:47:08;;;;;;;18.07;16.77;;;37.00;46.80;;;;;;5025380;28;20424;-55
2022/08/24 11:49:53;;;;;;;17.93;16.63;;;37.30;44.90;;;;;;5027849;28;20892;-55
2022/08/24 11:52:34;;;;;;;18.13;16.73;;;37.50;45.90;;;;;;5026781;28;20519;-56
2022/08/24 11:55:23;;;;;;;16.20;15.00;;;38.10;43.10;;;;;;5027728;28;20513;-57
2022/08/24 11:57:57;;;;;;;16.27;14.80;;;38.40;41.10;;;;;;5025547;28;20508;-53
2022/08/24 12:00:32;;;;;;;16.63;15.33;;;37.10;43.30;;;;;;5027966;28;21097;-53
2022/08/24 12:03:03;;;;;;;16.00;14.70;;;36.70;43.60;;;;;;5027277;28;20439;-55
2022/08/24 12:05:42;;;;;;;15.60;14.20;;;35.90;44.80;;;;;;5031490;28;20483;-53
2022/08/24 12:08:17;;;;;;;15.70;14.60;;;34.90;48.60;;;;;;5028962;28;20432;-57
2022/08/24 12:10:47;;;;;;;16.07;14.90;;;34.00;49.00;;;;;;5026091;28;20825;-56
2022/08/24 12:13:16;;;;;;;16.93;15.63;;;33.10;52.10;;;;;;5027799;28;20425;-55
2022/08/24 12:16:12;;;;;;;16.53;15.03;;;32.60;54.80;;;;;;5028641;28;20469;-54
2022/08/24 12:19:01;;;;;;;15.00;13.80;;;32.00;56.90;;;;;;5026012;28;20783;-55
2022/08/24 12:21:31;;;;;;;16.53;15.03;;;32.50;56.60;;;;;;5025274;28;20444;-53
2022/08/24 12:24:04;;;;;;;14.93;13.77;;;33.20;55.60;;;;;;5028998;28;20413;-53
2022/08/24 12:26:53;;;;;;;15.13;14.03;;;33.80;53.80;;;;;;5028529;28;20421;-54
2022/08/24 12:29:27;;;;;;;16.03;14.73;;;34.30;51.70;;;;;;5028335;28;20402;-56
2022/08/24 12:31:58;;;;;;;17.63;16.07;;;34.60;48.20;;;;;;5027406;28;20428;-52
2022/08/24 12:34:35;;;;;;;15.97;14.53;;;34.10;49.60;;;;;;5027547;28;21056;-54
2022/08/24 12:37:35;;;;;;;17.23;15.83;;;33.60;51.00;;;;;;5027714;28;20790;-54
2022/08/24 12:40:18;;;;;;;17.40;16.20;;;33.30;52.30;;;;;;5024539;28;20963;-53
2022/08/24 12:42:57;;;;;;;17.53;15.93;;;33.10;52.90;;;;;;5029330;28;20413;-55
2022/08/24 12:45:23;;;;;;;17.90;16.20;;;32.40;55.40;;;;;;5029996;28;20525;-56
2022/08/24 12:48:02;;;;;;;17.33;15.93;;;32.10;56.20;;;;;;5029877;28;20801;-56
2022/08/24 12:50:35;;;;;;;18.83;17.23;;;32.10;57.20;;;;;;5030600;28;20574;-50
2022/08/24 12:53:09;;;;;;;18.90;17.37;;;32.00;56.20;;;;;;5030242;28;20422;-52
2022/08/24 12:56:05;;;;;;;17.57;16.17;;;32.30;54.20;;;;;;5030059;28;20560;-54
2022/08/24 12:59:09;;;;;;;16.77;15.47;;;32.50;56.40;;;;;;5031509;28;20500;-49
2022/08/24 13:01:42;;;;;;;17.40;16.10;;;32.20;54.50;;;;;;5028396;28;20452;-52